createdAt,value
2018-03-25T00:00:42.346Z,39.66
2018-03-25T00:01:42.356Z,39.52
2018-03-25T00:02:42.320Z,39.43
2018-03-25T00:03:42.328Z,39.64
2018-03-25T00:04:42.331Z,39.5
2018-03-25T00:05:42.353Z,39.42
2018-03-25T00:06:42.375Z,39.7
2018-03-25T00:07:42.335Z,39.57
2018-03-25T00:08:42.329Z,39.48
2018-03-25T00:09:42.333Z,39.65
2018-03-25T00:10:42.347Z,39.54
2018-03-25T00:11:42.362Z,39.45
2018-03-25T00:12:42.359Z,39.77
2018-03-25T00:13:42.322Z,39.51
2018-03-25T00:14:42.384Z,39.4
2018-03-25T00:15:42.336Z,39.66
2018-03-25T00:16:42.356Z,39.54
2018-03-25T00:17:42.400Z,39.45
2018-03-25T00:18:42.341Z,39.7
2018-03-25T00:19:42.332Z,39.6
2018-03-25T00:20:42.401Z,39.45
2018-03-25T00:21:42.365Z,39.74
2018-03-25T00:22:42.316Z,39.59
2018-03-25T00:23:42.368Z,39.45
2018-03-25T00:24:42.331Z,39.71
2018-03-25T00:25:42.382Z,39.55
2018-03-25T00:26:42.371Z,39.41
2018-03-25T00:27:42.784Z,39.64
2018-03-25T00:28:42.333Z,39.58
2018-03-25T00:29:42.322Z,39.48
2018-03-25T00:30:42.381Z,39.65
2018-03-25T00:31:42.609Z,39.51
2018-03-25T00:32:42.356Z,39.43
2018-03-25T00:33:42.327Z,39.68
2018-03-25T00:34:42.390Z,39.53
2018-03-25T00:35:42.347Z,39.46
2018-03-25T00:36:42.357Z,39.67
2018-03-25T00:37:42.384Z,39.57
2018-03-25T00:38:42.318Z,39.47
2018-03-25T00:39:42.324Z,39.69
2018-03-25T00:40:42.368Z,39.59
2018-03-25T00:41:42.362Z,39.47
2018-03-25T00:42:42.360Z,39.69
2018-03-25T00:43:42.327Z,39.53
2018-03-25T00:44:42.301Z,39.42
2018-03-25T00:45:42.336Z,39.71
2018-03-25T00:46:42.314Z,39.57
2018-03-25T00:47:42.370Z,39.44
2018-03-25T00:48:42.352Z,39.65
2018-03-25T00:49:42.321Z,39.51
2018-03-25T00:50:42.551Z,39.43
2018-03-25T00:51:42.310Z,39.7
2018-03-25T00:52:42.318Z,39.55
2018-03-25T00:53:42.402Z,39.44
2018-03-25T00:54:42.366Z,39.63
2018-03-25T00:55:42.337Z,39.57
2018-03-25T00:56:42.315Z,39.44
2018-03-25T00:57:42.400Z,39.66
2018-03-25T00:58:42.343Z,39.54
2018-03-25T00:59:42.323Z,39.45
2018-03-25T01:00:42.330Z,39.62
2018-03-25T01:01:42.590Z,39.54
2018-03-25T01:02:42.360Z,39.42
2018-03-25T01:03:42.325Z,39.63
2018-03-25T01:04:42.339Z,39.46
2018-03-25T01:05:42.326Z,39.44
2018-03-25T01:06:42.359Z,39.61
2018-03-25T01:07:42.686Z,39.53
2018-03-25T01:08:42.410Z,39.38
2018-03-25T01:09:42.311Z,39.62
2018-03-25T01:10:42.343Z,39.51
2018-03-25T01:11:42.353Z,39.34
2018-03-25T01:12:46.182Z,39.57
2018-03-25T01:13:42.348Z,39.48
2018-03-25T01:14:42.383Z,39.37
2018-03-25T01:15:42.329Z,39.56
2018-03-25T01:16:42.336Z,39.44
2018-03-25T01:17:42.331Z,39.33
2018-03-25T01:18:42.380Z,39.55
2018-03-25T01:19:42.446Z,39.46
2018-03-25T01:20:42.334Z,39.4
2018-03-25T01:21:42.386Z,39.63
2018-03-25T01:22:42.359Z,39.48
2018-03-25T01:23:42.399Z,39.41
2018-03-25T01:24:42.364Z,39.58
2018-03-25T01:25:42.319Z,39.54
2018-03-25T01:26:42.422Z,39.42
2018-03-25T01:27:42.383Z,39.54
2018-03-25T01:28:42.357Z,39.48
2018-03-25T01:29:42.358Z,39.38
2018-03-25T01:30:42.358Z,39.6
2018-03-25T01:31:42.434Z,39.47
2018-03-25T01:32:42.356Z,39.38
2018-03-25T01:33:42.326Z,39.55
2018-03-25T01:34:42.328Z,39.42
2018-03-25T01:35:42.331Z,39.3
2018-03-25T01:36:42.363Z,39.55
2018-03-25T01:37:42.356Z,39.48
2018-03-25T01:38:42.357Z,39.29
2018-03-25T01:39:42.367Z,39.5
2018-03-25T01:40:42.355Z,39.45
2018-03-25T01:41:42.347Z,39.34
2018-03-25T01:42:42.329Z,39.55
2018-03-25T01:43:42.337Z,39.4
2018-03-25T01:44:42.374Z,39.33
2018-03-25T01:45:42.342Z,39.5
2018-03-25T01:46:42.355Z,39.41
2018-03-25T01:47:42.320Z,39.36
2018-03-25T01:48:42.369Z,39.57
2018-03-25T01:49:42.498Z,39.44
2018-03-25T01:50:42.336Z,39.35
2018-03-25T01:51:42.351Z,39.57
2018-03-25T01:52:42.352Z,39.45
2018-03-25T01:53:42.331Z,39.37
2018-03-25T01:54:42.409Z,39.62
2018-03-25T01:55:42.464Z,39.53
2018-03-25T01:56:42.352Z,39.34
2018-03-25T01:57:42.338Z,39.53
2018-03-25T01:58:42.343Z,39.45
2018-03-25T01:59:42.326Z,39.36
2018-03-25T02:00:42.327Z,39.55
2018-03-25T02:01:42.352Z,39.47
2018-03-25T02:02:42.411Z,39.34
2018-03-25T02:03:42.316Z,39.52
2018-03-25T02:04:42.306Z,39.44
2018-03-25T02:05:42.325Z,39.31
2018-03-25T02:06:42.313Z,39.54
2018-03-25T02:07:42.348Z,39.45
2018-03-25T02:08:42.346Z,39.38
2018-03-25T02:09:42.350Z,39.57
2018-03-25T02:10:42.322Z,39.45
2018-03-25T02:11:42.322Z,39.34
2018-03-25T02:12:42.357Z,39.48
2018-03-25T02:13:42.341Z,39.41
2018-03-25T02:14:42.331Z,39.3
2018-03-25T02:15:42.351Z,39.57
2018-03-25T02:16:42.352Z,39.43
2018-03-25T02:17:42.343Z,39.33
2018-03-25T02:18:42.387Z,39.51
2018-03-25T02:19:42.349Z,39.48
2018-03-25T02:20:42.403Z,39.29
2018-03-25T02:21:42.310Z,39.41
2018-03-25T02:22:42.367Z,39.37
2018-03-25T02:23:42.337Z,39.3
2018-03-25T02:24:42.333Z,39.48
2018-03-25T02:25:42.343Z,39.41
2018-03-25T02:26:42.361Z,39.33
2018-03-25T02:27:42.338Z,39.47
2018-03-25T02:28:42.344Z,39.46
2018-03-25T02:29:42.323Z,39.31
2018-03-25T02:30:42.330Z,39.49
2018-03-25T02:31:42.348Z,39.45
2018-03-25T02:32:42.594Z,39.3
2018-03-25T02:33:42.378Z,39.55
2018-03-25T02:34:42.361Z,39.42
2018-03-25T02:35:42.339Z,39.29
2018-03-25T02:36:42.341Z,39.51
2018-03-25T02:37:42.353Z,39.41
2018-03-25T02:38:42.360Z,39.31
2018-03-25T02:39:42.339Z,39.51
2018-03-25T02:40:42.361Z,39.44
2018-03-25T02:41:42.355Z,39.29
2018-03-25T02:42:42.353Z,39.44
2018-03-25T02:43:42.453Z,39.44
2018-03-25T02:44:42.337Z,39.32
2018-03-25T02:45:42.350Z,39.49
2018-03-25T02:46:42.338Z,39.43
2018-03-25T02:47:42.353Z,39.33
2018-03-25T02:48:42.412Z,39.53
2018-03-25T02:49:42.385Z,39.4
2018-03-25T02:50:42.377Z,39.29
2018-03-25T02:51:42.428Z,39.49
2018-03-25T02:52:42.298Z,39.42
2018-03-25T02:53:42.410Z,39.3
2018-03-25T02:54:42.476Z,39.5
2018-03-25T02:55:42.395Z,39.4
2018-03-25T02:56:42.365Z,39.24
2018-03-25T02:57:42.340Z,39.46
2018-03-25T02:58:42.428Z,39.44
2018-03-25T02:59:42.355Z,39.34
2018-03-25T03:00:42.343Z,39.47
2018-03-25T03:01:42.344Z,39.4
2018-03-25T03:02:42.371Z,39.35
2018-03-25T03:03:42.330Z,39.48
2018-03-25T03:04:42.349Z,39.39
2018-03-25T03:05:42.342Z,39.27
2018-03-25T03:06:42.328Z,39.51
2018-03-25T03:07:42.365Z,39.48
2018-03-25T03:08:42.324Z,39.31
2018-03-25T03:09:42.308Z,39.48
2018-03-25T03:10:42.402Z,39.39
2018-03-25T03:11:42.325Z,39.31
2018-03-25T03:12:42.344Z,39.42
2018-03-25T03:13:42.310Z,39.41
2018-03-25T03:14:42.326Z,39.27
2018-03-25T03:15:42.308Z,39.46
2018-03-25T03:16:42.332Z,39.43
2018-03-25T03:17:42.305Z,39.33
2018-03-25T03:18:42.337Z,39.47
2018-03-25T03:19:42.305Z,39.5
2018-03-25T03:20:42.346Z,39.37
2018-03-25T03:21:42.323Z,39.47
2018-03-25T03:22:42.368Z,39.38
2018-03-25T03:23:42.342Z,39.3
2018-03-25T03:24:42.346Z,39.48
2018-03-25T03:25:42.279Z,39.39
2018-03-25T03:26:42.326Z,39.31
2018-03-25T03:27:42.318Z,39.37
2018-03-25T03:28:42.401Z,39.44
2018-03-25T03:29:42.297Z,39.27
2018-03-25T03:30:42.370Z,39.47
2018-03-25T03:31:42.361Z,39.4
2018-03-25T03:32:42.316Z,39.28
2018-03-25T03:33:42.307Z,39.42
2018-03-25T03:34:42.326Z,39.42
2018-03-25T03:35:42.310Z,39.28
2018-03-25T03:36:42.322Z,39.44
2018-03-25T03:37:42.281Z,39.35
2018-03-25T03:38:42.342Z,39.25
2018-03-25T03:39:42.288Z,39.46
2018-03-25T03:40:42.283Z,39.35
2018-03-25T03:41:42.292Z,39.24
2018-03-25T03:42:42.278Z,39.42
2018-03-25T03:43:42.328Z,39.33
2018-03-25T03:44:42.321Z,39.28
2018-03-25T03:45:42.282Z,39.48
2018-03-25T03:46:42.301Z,39.38
2018-03-25T03:47:42.349Z,39.27
2018-03-25T03:48:42.310Z,39.44
2018-03-25T03:49:42.322Z,39.34
2018-03-25T03:50:42.297Z,39.24
2018-03-25T03:51:42.299Z,39.37
2018-03-25T03:52:42.263Z,39.3
2018-03-25T03:53:42.388Z,39.24
2018-03-25T03:54:42.318Z,39.5
2018-03-25T03:55:42.393Z,39.37
2018-03-25T03:56:42.401Z,39.29
2018-03-25T03:57:42.319Z,39.44
2018-03-25T03:58:42.309Z,39.46
2018-03-25T03:59:42.301Z,39.29
2018-03-25T04:00:42.290Z,39.46
2018-03-25T04:01:42.251Z,39.43
2018-03-25T04:02:42.289Z,39.28
2018-03-25T04:03:42.294Z,39.5
2018-03-25T04:04:42.375Z,39.43
2018-03-25T04:05:42.307Z,39.39
2018-03-25T04:06:42.313Z,39.53
2018-03-25T04:07:42.299Z,39.55
2018-03-25T04:08:42.277Z,39.46
2018-03-25T04:09:42.326Z,39.62
2018-03-25T04:10:42.313Z,39.57
2018-03-25T04:11:42.303Z,39.56
2018-03-25T04:12:42.301Z,39.73
2018-03-25T04:13:42.315Z,39.63
2018-03-25T04:14:42.315Z,39.55
2018-03-25T04:15:42.301Z,39.61
2018-03-25T04:16:42.296Z,39.62
2018-03-25T04:17:42.292Z,39.54
2018-03-25T04:18:42.356Z,39.54
2018-03-25T04:19:42.317Z,39.55
2018-03-25T04:20:42.448Z,39.48
2018-03-25T04:21:42.323Z,39.44
2018-03-25T04:22:42.280Z,39.44
2018-03-25T04:23:42.304Z,39.46
2018-03-25T04:24:42.373Z,39.4
2018-03-25T04:25:42.320Z,39.35
2018-03-25T04:26:42.287Z,39.35
2018-03-25T04:27:42.307Z,39.33
2018-03-25T04:28:42.299Z,39.34
2018-03-25T04:29:42.280Z,39.28
2018-03-25T04:30:42.312Z,39.3
2018-03-25T04:31:42.299Z,39.31
2018-03-25T04:32:42.346Z,39.35
2018-03-25T04:33:42.287Z,39.34
2018-03-25T04:34:42.298Z,39.32
2018-03-25T04:35:42.284Z,39.3
2018-03-25T04:36:42.325Z,39.39
2018-03-25T04:37:42.344Z,39.29
2018-03-25T04:38:42.284Z,39.3
2018-03-25T04:39:42.291Z,39.28
2018-03-25T04:40:42.266Z,39.33
2018-03-25T04:41:42.302Z,39.28
2018-03-25T04:42:42.256Z,39.31
2018-03-25T04:43:42.280Z,39.33
2018-03-25T04:44:42.278Z,39.31
2018-03-25T04:45:42.288Z,39.34
2018-03-25T04:46:42.306Z,39.4
2018-03-25T04:47:42.305Z,39.29
2018-03-25T04:48:42.313Z,39.35
2018-03-25T04:49:42.321Z,39.3
2018-03-25T04:50:42.292Z,39.32
2018-03-25T04:51:42.281Z,39.38
2018-03-25T04:52:42.299Z,39.3
2018-03-25T04:53:42.254Z,39.37
2018-03-25T04:54:42.302Z,39.39
2018-03-25T04:55:42.353Z,39.27
2018-03-25T04:56:42.313Z,39.26
2018-03-25T04:57:42.256Z,39.32
2018-03-25T04:58:42.300Z,39.34
2018-03-25T04:59:42.268Z,39.29
2018-03-25T05:00:42.273Z,39.29
2018-03-25T05:01:42.315Z,39.35
2018-03-25T05:02:42.340Z,39.3
2018-03-25T05:03:42.312Z,39.31
2018-03-25T05:04:42.303Z,39.28
2018-03-25T05:05:42.278Z,39.29
2018-03-25T05:06:42.297Z,39.34
2018-03-25T05:07:42.346Z,39.27
2018-03-25T05:08:42.264Z,39.28
2018-03-25T05:09:42.287Z,39.27
2018-03-25T05:10:42.323Z,39.34
2018-03-25T05:11:42.276Z,39.23
2018-03-25T05:12:42.275Z,39.27
2018-03-25T05:13:42.308Z,39.27
2018-03-25T05:14:42.267Z,39.2
2018-03-25T05:15:42.307Z,39.25
2018-03-25T05:16:42.272Z,39.26
2018-03-25T05:17:42.293Z,39.28
2018-03-25T05:18:42.289Z,39.24
2018-03-25T05:19:42.257Z,39.29
2018-03-25T05:20:42.293Z,39.23
2018-03-25T05:21:42.291Z,39.26
2018-03-25T05:22:42.301Z,39.28
2018-03-25T05:23:42.269Z,39.14
2018-03-25T05:24:42.304Z,39.24
2018-03-25T05:25:42.301Z,39.26
2018-03-25T05:26:42.326Z,39.23
2018-03-25T05:27:42.329Z,39.21
2018-03-25T05:28:42.259Z,39.27
2018-03-25T05:29:42.254Z,39.27
2018-03-25T05:30:42.263Z,39.26
2018-03-25T05:31:42.272Z,39.24
2018-03-25T05:32:42.278Z,39.2
2018-03-25T05:33:42.281Z,39.22
2018-03-25T05:34:42.348Z,39.27
2018-03-25T05:35:42.262Z,39.26
2018-03-25T05:36:42.260Z,39.28
2018-03-25T05:37:42.265Z,39.17
2018-03-25T05:38:42.240Z,39.24
2018-03-25T05:39:42.274Z,39.21
2018-03-25T05:40:42.306Z,39.24
2018-03-25T05:41:42.251Z,39.2
2018-03-25T05:42:42.254Z,39.18
2018-03-25T05:43:42.271Z,39.17
2018-03-25T05:44:42.250Z,39.19
2018-03-25T05:45:42.272Z,39.15
2018-03-25T05:46:42.278Z,39.19
2018-03-25T05:47:42.252Z,39.17
2018-03-25T05:48:42.271Z,39.15
2018-03-25T05:49:42.285Z,39.17
2018-03-25T05:50:42.256Z,39.17
2018-03-25T05:51:42.281Z,39.17
2018-03-25T05:52:42.292Z,39.17
2018-03-25T05:53:42.258Z,39.12
2018-03-25T05:54:42.287Z,39.16
2018-03-25T05:55:42.237Z,39.15
2018-03-25T05:56:42.370Z,39.15
2018-03-25T05:57:42.393Z,39.2
2018-03-25T05:58:42.207Z,39.14
2018-03-25T05:59:42.274Z,39.15
2018-03-25T06:00:42.238Z,39.15
2018-03-25T06:01:42.288Z,39.15
2018-03-25T06:02:42.257Z,39.15
2018-03-25T06:03:42.300Z,39.12
2018-03-25T06:04:42.353Z,39.12
2018-03-25T06:05:42.256Z,39.07
2018-03-25T06:06:42.250Z,39.11
2018-03-25T06:07:42.255Z,39.14
2018-03-25T06:08:42.391Z,39.12
2018-03-25T06:09:42.272Z,39.12
2018-03-25T06:10:42.275Z,39.07
2018-03-25T06:11:42.295Z,39.1
2018-03-25T06:12:42.286Z,39.11
2018-03-25T06:13:42.275Z,39.09
2018-03-25T06:14:42.236Z,39.09
2018-03-25T06:15:42.251Z,39.12
2018-03-25T06:16:42.288Z,39.11
2018-03-25T06:17:42.213Z,39.1
2018-03-25T06:18:42.269Z,39.12
2018-03-25T06:19:42.298Z,39.13
2018-03-25T06:20:42.278Z,39.05
2018-03-25T06:21:42.261Z,39.06
2018-03-25T06:22:42.254Z,39.07
2018-03-25T06:23:42.259Z,39.01
2018-03-25T06:24:42.247Z,39.04
2018-03-25T06:25:42.218Z,39.06
2018-03-25T06:26:42.278Z,39.04
2018-03-25T06:27:42.222Z,39.1
2018-03-25T06:28:42.265Z,39.06
2018-03-25T06:29:42.308Z,39.04
2018-03-25T06:30:42.220Z,39.05
2018-03-25T06:31:42.258Z,39.05
2018-03-25T06:32:42.259Z,39.01
2018-03-25T06:33:42.220Z,39.06
2018-03-25T06:34:42.252Z,39.04
2018-03-25T06:35:42.254Z,39
2018-03-25T06:36:42.241Z,39.01
2018-03-25T06:37:42.252Z,38.99
2018-03-25T06:38:42.250Z,38.99
2018-03-25T06:39:42.291Z,39.01
2018-03-25T06:40:42.286Z,39.06
2018-03-25T06:41:42.238Z,39.02
2018-03-25T06:42:42.265Z,38.99
2018-03-25T06:43:42.251Z,39.02
2018-03-25T06:44:42.306Z,39.01
2018-03-25T06:45:42.225Z,38.94
2018-03-25T06:46:42.240Z,38.98
2018-03-25T06:47:42.269Z,38.98
2018-03-25T06:48:42.224Z,38.96
2018-03-25T06:49:42.248Z,38.97
2018-03-25T06:50:42.222Z,38.98
2018-03-25T06:51:42.266Z,38.99
2018-03-25T06:52:42.266Z,38.94
2018-03-25T06:53:42.241Z,38.93
2018-03-25T06:54:42.255Z,38.98
2018-03-25T06:55:42.250Z,38.98
2018-03-25T06:56:42.257Z,38.98
2018-03-25T06:57:42.228Z,38.94
2018-03-25T06:58:42.216Z,38.96
2018-03-25T06:59:42.304Z,38.86
2018-03-25T07:00:42.249Z,38.96
2018-03-25T07:01:42.215Z,38.98
2018-03-25T07:02:42.280Z,38.96
2018-03-25T07:03:42.258Z,38.92
2018-03-25T07:04:42.258Z,38.97
2018-03-25T07:05:42.270Z,38.85
2018-03-25T07:06:42.224Z,38.92
2018-03-25T07:07:42.279Z,38.94
2018-03-25T07:08:42.750Z,38.92
2018-03-25T07:09:42.272Z,38.96
2018-03-25T07:10:42.213Z,38.89
2018-03-25T07:11:42.319Z,38.9
2018-03-25T07:12:42.243Z,38.96
2018-03-25T07:13:42.244Z,38.93
2018-03-25T07:14:42.350Z,38.87
2018-03-25T07:15:42.277Z,38.94
2018-03-25T07:16:42.257Z,38.93
2018-03-25T07:17:42.321Z,38.93
2018-03-25T07:18:42.229Z,38.89
2018-03-25T07:19:42.200Z,38.88
2018-03-25T07:20:42.246Z,38.89
2018-03-25T07:21:42.240Z,38.88
2018-03-25T07:22:42.253Z,38.89
2018-03-25T07:23:42.244Z,38.83
2018-03-25T07:24:42.229Z,38.91
2018-03-25T07:25:42.302Z,38.91
2018-03-25T07:26:42.218Z,38.83
2018-03-25T07:27:42.261Z,38.91
2018-03-25T07:28:42.231Z,38.87
2018-03-25T07:29:42.248Z,38.89
2018-03-25T07:30:42.297Z,38.87
2018-03-25T07:31:42.254Z,38.85
2018-03-25T07:32:42.240Z,38.86
2018-03-25T07:33:42.239Z,38.85
2018-03-25T07:34:42.289Z,38.91
2018-03-25T07:35:42.222Z,38.85
2018-03-25T07:36:42.262Z,38.85
2018-03-25T07:37:42.780Z,38.84
2018-03-25T07:38:42.238Z,38.82
2018-03-25T07:39:42.210Z,38.89
2018-03-25T07:40:42.240Z,38.86
2018-03-25T07:41:42.266Z,38.8
2018-03-25T07:42:42.247Z,38.86
2018-03-25T07:43:42.251Z,38.85
2018-03-25T07:44:42.244Z,38.86
2018-03-25T07:45:42.236Z,38.88
2018-03-25T07:46:42.319Z,38.84
2018-03-25T07:47:42.220Z,38.85
2018-03-25T07:48:42.264Z,38.92
2018-03-25T07:49:42.249Z,38.85
2018-03-25T07:50:42.209Z,38.8
2018-03-25T07:51:42.225Z,38.84
2018-03-25T07:52:42.198Z,38.85
2018-03-25T07:53:42.228Z,38.84
2018-03-25T07:54:42.242Z,38.89
2018-03-25T07:55:42.229Z,38.85
2018-03-25T07:56:42.240Z,38.82
2018-03-25T07:57:42.357Z,38.87
2018-03-25T07:58:42.340Z,38.84
2018-03-25T07:59:42.223Z,38.75
2018-03-25T08:00:42.246Z,38.87
2018-03-25T08:01:42.274Z,38.87
2018-03-25T08:02:42.236Z,38.79
2018-03-25T08:03:42.201Z,38.88
2018-03-25T08:04:42.244Z,38.83
2018-03-25T08:05:42.206Z,38.84
2018-03-25T08:06:42.215Z,38.86
2018-03-25T08:07:42.234Z,38.83
2018-03-25T08:08:42.215Z,38.81
2018-03-25T08:09:42.241Z,38.83
2018-03-25T08:10:42.177Z,38.8
2018-03-25T08:11:42.215Z,38.77
2018-03-25T08:12:42.245Z,38.83
2018-03-25T08:13:42.274Z,38.77
2018-03-25T08:14:42.219Z,38.76
2018-03-25T08:15:42.178Z,38.82
2018-03-25T08:16:42.229Z,38.79
2018-03-25T08:17:42.221Z,38.72
2018-03-25T08:18:42.217Z,38.82
2018-03-25T08:19:42.224Z,38.84
2018-03-25T08:20:42.313Z,38.79
2018-03-25T08:21:42.772Z,38.86
2018-03-25T08:22:42.296Z,38.82
2018-03-25T08:23:42.352Z,38.81
2018-03-25T08:24:42.249Z,38.87
2018-03-25T08:25:42.192Z,38.84
2018-03-25T08:26:42.215Z,38.83
2018-03-25T08:27:42.180Z,38.86
2018-03-25T08:28:42.222Z,38.77
2018-03-25T08:29:42.275Z,38.8
2018-03-25T08:30:42.213Z,38.88
2018-03-25T08:31:42.250Z,38.83
2018-03-25T08:32:42.232Z,38.75
2018-03-25T08:33:42.212Z,38.89
2018-03-25T08:34:42.240Z,38.8
2018-03-25T08:35:42.303Z,38.77
2018-03-25T08:36:42.214Z,38.8
2018-03-25T08:37:42.197Z,38.75
2018-03-25T08:38:42.317Z,38.75
2018-03-25T08:39:42.212Z,38.75
2018-03-25T08:40:42.211Z,38.79
2018-03-25T08:41:42.239Z,38.75
2018-03-25T08:42:42.189Z,38.77
2018-03-25T08:43:42.206Z,38.76
2018-03-25T08:44:42.231Z,38.75
2018-03-25T08:45:42.309Z,38.72
2018-03-25T08:46:42.211Z,36.92
2018-03-25T08:47:42.228Z,36.44
2018-03-25T08:48:42.187Z,36.48
2018-03-25T08:49:42.178Z,35.67
2018-03-25T08:50:42.201Z,35.34
2018-03-25T08:51:42.224Z,36.26
2018-03-25T08:52:42.175Z,36.14
2018-03-25T08:53:42.230Z,35.91
2018-03-25T08:54:42.170Z,36.3
2018-03-25T08:55:42.403Z,35.93
2018-03-25T08:56:42.221Z,35.97
2018-03-25T08:57:42.272Z,36.38
2018-03-25T08:58:42.235Z,36.3
2018-03-25T08:59:42.214Z,36.54
2018-03-25T09:00:42.223Z,36.57
2018-03-25T09:01:42.296Z,36.39
2018-03-25T09:02:42.244Z,36.54
2018-03-25T09:03:42.210Z,36.12
2018-03-25T09:04:42.239Z,36.22
2018-03-25T09:05:42.246Z,36.52
2018-03-25T09:06:42.262Z,36.44
2018-03-25T09:07:42.232Z,36.64
2018-03-25T09:08:42.224Z,36.71
2018-03-25T09:09:42.215Z,36.76
2018-03-25T09:10:42.169Z,36.84
2018-03-25T09:11:42.266Z,36.86
2018-03-25T09:12:42.164Z,36.93
2018-03-25T09:13:42.247Z,36.91
2018-03-25T09:14:42.244Z,37
2018-03-25T09:15:42.211Z,37.05
2018-03-25T09:16:42.200Z,36.74
2018-03-25T09:17:42.294Z,36.74
2018-03-25T09:18:42.215Z,36.78
2018-03-25T09:19:42.209Z,36.74
2018-03-25T09:20:42.243Z,36.72
2018-03-25T09:21:42.327Z,37.34
2018-03-25T09:22:42.185Z,37.25
2018-03-25T09:23:42.278Z,37.8
2018-03-25T09:24:42.214Z,37.55
2018-03-25T09:25:42.205Z,37.5
2018-03-25T09:26:42.188Z,37.52
2018-03-25T09:27:42.219Z,37.68
2018-03-25T09:28:42.216Z,37.67
2018-03-25T09:29:42.203Z,37.79
2018-03-25T09:30:42.205Z,37.85
2018-03-25T09:31:42.193Z,37.75
2018-03-25T09:32:42.252Z,37.77
2018-03-25T09:33:42.204Z,37.8
2018-03-25T09:34:42.205Z,37.8
2018-03-25T09:35:42.196Z,37.87
2018-03-25T09:36:42.152Z,37.81
2018-03-25T09:37:42.186Z,37.38
2018-03-25T09:38:42.183Z,37.13
2018-03-25T09:39:42.155Z,37.28
2018-03-25T09:40:42.154Z,37.54
2018-03-25T09:41:42.192Z,37.57
2018-03-25T09:42:42.192Z,37.76
2018-03-25T09:43:42.164Z,37.46
2018-03-25T09:44:42.192Z,37.13
2018-03-25T09:45:42.185Z,37.11
2018-03-25T09:46:42.152Z,37.11
2018-03-25T09:47:42.201Z,36.94
2018-03-25T09:48:42.211Z,36.93
2018-03-25T09:49:42.197Z,37.06
2018-03-25T09:50:42.173Z,36.96
2018-03-25T09:51:42.187Z,36.95
2018-03-25T09:52:42.489Z,36.88
2018-03-25T09:53:42.187Z,36.91
2018-03-25T09:54:42.191Z,37.03
2018-03-25T09:55:42.201Z,37.05
2018-03-25T09:56:42.188Z,37.03
2018-03-25T09:57:42.139Z,37.13
2018-03-25T09:58:42.761Z,37.04
2018-03-25T09:59:42.302Z,37.05
2018-03-25T10:00:42.188Z,37.09
2018-03-25T10:01:42.232Z,37.2
2018-03-25T10:02:42.238Z,37.13
2018-03-25T10:03:42.176Z,37.18
2018-03-25T10:04:43.043Z,37.08
2018-03-25T10:05:42.185Z,37.08
2018-03-25T10:06:42.232Z,37.13
2018-03-25T10:07:42.162Z,37.17
2018-03-25T10:08:42.176Z,37.11
2018-03-25T10:09:42.212Z,37.17
2018-03-25T10:10:42.138Z,37.07
2018-03-25T10:11:42.214Z,37.12
2018-03-25T10:12:42.187Z,37.2
2018-03-25T10:13:42.209Z,37.2
2018-03-25T10:14:42.341Z,37.13
2018-03-25T10:15:42.198Z,37.16
2018-03-25T10:16:42.384Z,37.29
2018-03-25T10:17:42.190Z,37.09
2018-03-25T10:18:42.259Z,38.61
2018-03-25T10:19:00.683Z,41.86
2018-03-25T10:19:46.984Z,37.69
2018-03-25T10:20:46.970Z,37.49
2018-03-25T10:21:46.973Z,37.44
2018-03-25T10:22:46.954Z,37.4
2018-03-25T10:23:46.966Z,37.51
2018-03-25T10:24:46.978Z,37.38
2018-03-25T10:25:46.985Z,37.64
2018-03-25T10:26:47.001Z,37.82
2018-03-25T10:27:47.788Z,37.45
2018-03-25T10:28:46.946Z,37.31
2018-03-25T10:29:46.978Z,37.38
2018-03-25T10:30:46.953Z,37.24
2018-03-25T10:31:46.933Z,37.18
2018-03-25T10:32:18.844Z,37.3
2018-03-25T10:33:18.961Z,37.33
2018-03-25T10:34:18.899Z,37.21
2018-03-25T10:35:18.875Z,37.12
2018-03-25T10:36:18.952Z,37.01
2018-03-25T10:37:18.913Z,36.97
2018-03-25T10:38:18.956Z,37.02
2018-03-25T10:39:18.903Z,37.13
2018-03-25T10:40:18.914Z,37.05
2018-03-25T10:40:59.190Z,37.06
2018-03-25T10:41:59.174Z,37.13
2018-03-25T10:42:59.173Z,37.06
2018-03-25T10:43:59.170Z,37.01
2018-03-25T10:44:59.210Z,37.15
2018-03-25T10:45:59.166Z,37.05
2018-03-25T10:46:59.193Z,37.58
2018-03-25T10:47:59.150Z,37.11
2018-03-25T10:48:59.160Z,36.98
2018-03-25T10:49:59.137Z,37.09
2018-03-25T10:50:59.173Z,37.38
2018-03-25T10:51:59.164Z,37.17
2018-03-25T10:52:59.186Z,37.98
2018-03-25T10:53:59.176Z,37.28
2018-03-25T10:54:59.177Z,37.16
2018-03-25T10:55:59.204Z,37.2
2018-03-25T10:56:59.194Z,37.25
2018-03-25T10:57:59.202Z,37.2
2018-03-25T10:58:59.174Z,37.19
2018-03-25T10:59:59.195Z,37.32
2018-03-25T11:00:59.181Z,37.33
2018-03-25T11:01:59.277Z,37.24
2018-03-25T11:02:59.327Z,37.31
2018-03-25T11:03:59.201Z,37.29
2018-03-25T11:04:59.274Z,37.3
2018-03-25T11:05:59.243Z,38.08
2018-03-25T11:10:24.734Z,38.02
2018-03-25T11:11:24.720Z,37.85
2018-03-25T11:12:03.337Z,37.51
2018-03-25T11:12:41.279Z,38.8
2018-03-25T11:13:41.339Z,37.24
2018-03-25T11:14:41.352Z,37.22
2018-03-25T11:15:41.377Z,37.29
2018-03-25T11:16:41.315Z,37.4
2018-03-25T11:17:41.312Z,37.59
2018-03-25T11:18:41.411Z,37.37
2018-03-25T11:19:41.331Z,37.42
2018-03-25T11:20:41.358Z,37.48
2018-03-25T11:21:41.314Z,37.55
2018-03-25T11:22:41.350Z,37.62
2018-03-25T11:23:41.345Z,37.6
2018-03-25T11:24:41.679Z,37.63
2018-03-25T11:25:41.271Z,37.68
2018-03-25T11:26:41.407Z,37.67
2018-03-25T11:27:41.391Z,37.65
2018-03-25T11:28:41.279Z,37.73
2018-03-25T11:29:41.339Z,37.69
2018-03-25T11:30:41.295Z,37.7
2018-03-25T11:31:41.289Z,37.75
2018-03-25T11:32:41.307Z,37.8
2018-03-25T11:33:41.258Z,37.78
2018-03-25T11:34:41.264Z,37.84
2018-03-25T11:35:41.342Z,37.79
2018-03-25T11:36:41.346Z,37.75
2018-03-25T11:37:41.299Z,37.85
2018-03-25T11:38:41.269Z,37.87
2018-03-25T11:39:41.298Z,37.81
2018-03-25T11:40:41.260Z,37.81
2018-03-25T11:41:41.263Z,37.92
2018-03-25T11:42:41.385Z,37.81
2018-03-25T11:43:41.415Z,37.85
2018-03-25T11:44:41.216Z,37.89
2018-03-25T11:45:41.248Z,37.8
2018-03-25T11:46:41.322Z,37.85
2018-03-25T11:47:41.253Z,37.89
2018-03-25T11:48:41.254Z,37.87
2018-03-25T11:49:41.277Z,37.92
2018-03-25T11:50:41.258Z,37.91
2018-03-25T11:51:41.368Z,37.85
2018-03-25T11:52:41.313Z,37.91
2018-03-25T11:53:41.276Z,37.86
2018-03-25T11:54:41.429Z,37.89
2018-03-25T11:55:41.276Z,38.09
2018-03-25T11:56:41.248Z,38.07
2018-03-25T11:57:41.335Z,38
2018-03-25T11:58:41.302Z,38.21
2018-03-25T11:59:41.287Z,38.16
2018-03-25T12:00:41.296Z,38.09
2018-03-25T12:01:41.792Z,38.22
2018-03-25T12:02:41.274Z,38.17
2018-03-25T12:03:41.806Z,38.11
2018-03-25T12:04:41.312Z,38.27
2018-03-25T12:05:41.282Z,38.19
2018-03-25T12:06:41.296Z,38.17
2018-03-25T12:07:41.572Z,38.22
2018-03-25T12:08:41.283Z,38.22
2018-03-25T12:09:41.339Z,38.17
2018-03-25T12:10:41.272Z,38.26
2018-03-25T12:11:41.239Z,38.21
2018-03-25T12:12:41.364Z,38.14
2018-03-25T12:13:41.308Z,38.3
2018-03-25T12:14:41.274Z,38.22
2018-03-25T12:15:41.289Z,38.16
2018-03-25T12:16:41.321Z,38.3
2018-03-25T12:17:41.317Z,38.23
2018-03-25T12:18:41.267Z,38.14
2018-03-25T12:19:41.297Z,38.27
2018-03-25T12:20:41.286Z,38.18
2018-03-25T12:21:41.363Z,38.16
2018-03-25T12:22:41.278Z,38.26
2018-03-25T12:23:41.295Z,38.22
2018-03-25T12:24:41.402Z,38.18
2018-03-25T12:25:41.274Z,38.27
2018-03-25T12:26:41.307Z,38.26
2018-03-25T12:27:41.307Z,38.18
2018-03-25T12:28:41.292Z,38.3
2018-03-25T12:29:41.285Z,38.26
2018-03-25T12:30:41.282Z,38.23
2018-03-25T12:31:41.233Z,38.27
2018-03-25T12:32:41.298Z,38.19
2018-03-25T12:33:41.291Z,38.16
2018-03-25T12:34:41.292Z,38.27
2018-03-25T12:35:41.291Z,38.25
2018-03-25T12:36:41.274Z,38.17
2018-03-25T12:37:41.236Z,38.3
2018-03-25T12:38:41.614Z,38.27
2018-03-25T12:39:41.399Z,38.15
2018-03-25T12:40:41.275Z,38.33
2018-03-25T12:41:41.316Z,38.19
2018-03-25T12:42:41.267Z,38.21
2018-03-25T12:43:41.309Z,38.3
2018-03-25T12:44:41.656Z,38.25
2018-03-25T12:45:41.293Z,38.21
2018-03-25T12:46:41.288Z,38.34
2018-03-25T12:47:41.299Z,38.35
2018-03-25T12:48:41.286Z,38.61
2018-03-25T12:49:41.278Z,38.25
2018-03-25T12:50:41.270Z,38.52
2018-03-25T12:51:41.277Z,38.16
2018-03-25T12:52:41.308Z,37.48
2018-03-25T12:53:41.270Z,37.02
2018-03-25T12:54:41.283Z,37.05
2018-03-25T12:55:41.358Z,37.17
2018-03-25T12:56:41.327Z,37.32